Time;durP1;ratioP1;P1;durP2;ratioP2;P2;SDS_P1;SDS_P2;PMS_P1;PMS_P2;Temp;Humidity;BMP_temperature;BMP_pressure;BME280_temperature;BME280_humidity;BME280_pressure;Samples;Min_cycle;Max_cycle;Signal;HPM_P1;HPM_P2
2022/09/01 00:00:27;;;;;;;2.00;0.90;;;17.30;62.20;;;;;;6242703;23;20004;-67
2022/09/01 00:02:54;;;;;;;1.92;1.10;;;17.30;62.20;;;;;;6242815;23;20004;-67
2022/09/01 00:05:19;;;;;;;2.00;1.02;;;17.30;62.30;;;;;;6242121;23;20027;-67
2022/09/01 00:07:45;;;;;;;1.08;0.90;;;17.20;62.50;;;;;;6242548;23;20006;-67
2022/09/01 00:10:11;;;;;;;1.65;1.15;;;17.30;62.40;;;;;;6243521;23;20337;-67
2022/09/01 00:12:37;;;;;;;2.03;1.20;;;17.20;62.60;;;;;;6246461;23;20005;-67
2022/09/01 00:15:05;;;;;;;1.52;1.13;;;17.20;62.70;;;;;;6246448;23;20129;-66
2022/09/01 00:17:32;;;;;;;1.02;0.90;;;17.20;63.00;;;;;;6246371;22;20050;-66
2022/09/01 00:19:58;;;;;;;2.38;1.10;;;17.10;63.00;;;;;;6245870;23;19996;-66
2022/09/01 00:22:24;;;;;;;2.55;1.30;;;17.10;63.00;;;;;;6246009;23;20070;-67
2022/09/01 00:24:49;;;;;;;1.30;1.20;;;17.00;63.70;;;;;;6246173;23;20004;-67
2022/09/01 00:27:15;;;;;;;1.25;1.10;;;17.00;63.60;;;;;;6244918;23;20015;-67
2022/09/01 00:29:41;;;;;;;1.40;1.10;;;17.00;63.70;;;;;;6245040;23;20007;-67
2022/09/01 00:32:06;;;;;;;1.58;1.20;;;17.00;63.70;;;;;;6244825;23;20008;-68
2022/09/01 00:34:32;;;;;;;2.00;1.10;;;17.00;63.80;;;;;;6242195;23;20553;-68
2022/09/01 00:36:58;;;;;;;2.67;1.10;;;16.90;63.90;;;;;;6244833;23;20023;-67
2022/09/01 00:39:23;;;;;;;1.90;1.10;;;16.90;64.10;;;;;;6244647;23;20030;-67
2022/09/01 00:41:50;;;;;;;1.20;1.00;;;16.90;64.20;;;;;;6245348;23;20007;-66
2022/09/01 00:44:22;;;;;;;1.95;1.23;;;16.90;64.30;;;;;;6244858;23;20000;-66
2022/09/01 00:46:48;;;;;;;;;;;16.80;64.50;;;;;;6244895;23;20003;-67
2022/09/01 00:49:23;;;;;;;1.10;0.90;;;16.80;64.20;;;;;;6243695;22;19904;-65
2022/09/01 00:51:52;;;;;;;1.63;1.30;;;16.80;64.30;;;;;;6244603;23;20028;-66
2022/09/01 00:54:22;;;;;;;3.95;1.08;;;16.80;64.30;;;;;;6243561;23;20004;-66
2022/09/01 00:56:48;;;;;;;1.20;1.10;;;16.70;64.40;;;;;;6243248;23;20007;-67
2022/09/01 00:59:17;;;;;;;2.90;1.40;;;16.70;64.40;;;;;;6243240;23;19996;-67
2022/09/01 01:01:43;;;;;;;1.10;1.00;;;16.70;64.70;;;;;;6243815;23;20078;-66
2022/09/01 01:04:13;;;;;;;1.42;1.17;;;16.70;64.70;;;;;;6241571;23;20492;-67
2022/09/01 01:06:42;;;;;;;2.05;1.20;;;16.70;64.90;;;;;;6243039;23;20035;-67
2022/09/01 01:09:08;;;;;;;2.08;1.10;;;16.70;64.80;;;;;;6242947;23;20080;-68
2022/09/01 01:11:34;;;;;;;2.38;1.30;;;16.60;64.80;;;;;;6242501;23;20015;-68
2022/09/01 01:14:11;;;;;;;1.80;1.02;;;16.60;64.80;;;;;;6243101;23;20000;-67
2022/09/01 01:16:45;;;;;;;1.45;1.23;;;16.60;64.80;;;;;;6243124;23;20006;-66
2022/09/01 01:23:02;;;;;;;1.50;1.10;;;16.60;64.80;;;;;;6149859;23;20016;-67
2022/09/01 01:25:34;;;;;;;2.05;1.10;;;16.50;64.90;;;;;;6242620;23;20004;-67
2022/09/01 01:28:29;;;;;;;1.63;1.20;;;16.50;65.00;;;;;;6241694;23;20016;-67
2022/09/01 01:31:00;;;;;;;1.27;1.17;;;16.50;64.80;;;;;;6242137;23;20016;-66
2022/09/01 01:33:39;;;;;;;1.40;1.13;;;16.50;64.70;;;;;;6244394;23;20515;-66
2022/09/01 01:36:06;;;;;;;1.23;1.10;;;16.60;64.70;;;;;;6243958;23;20008;-67
2022/09/01 01:38:34;;;;;;;1.27;0.93;;;16.60;64.50;;;;;;6241921;23;19996;-67
2022/09/01 01:41:01;;;;;;;2.55;1.13;;;16.60;64.40;;;;;;6241807;23;20071;-67
2022/09/01 01:43:27;;;;;;;0.75;0.75;;;16.60;64.30;;;;;;6242253;23;20004;-67
2022/09/01 01:45:57;;;;;;;1.40;1.10;;;16.60;64.20;;;;;;6241829;23;20007;-67
2022/09/01 01:48:23;;;;;;;1.75;1.10;;;16.60;64.20;;;;;;6241802;22;20027;-67
2022/09/01 01:50:51;;;;;;;1.52;1.20;;;16.60;64.20;;;;;;6241704;23;20429;-67
2022/09/01 01:53:18;;;;;;;1.55;1.13;;;16.60;64.10;;;;;;6241350;23;20011;-67
2022/09/01 01:55:44;;;;;;;1.33;0.90;;;16.70;63.90;;;;;;6241567;23;20050;-67
2022/09/01 01:58:10;;;;;;;2.30;0.93;;;16.70;63.70;;;;;;6241118;23;20007;-68
2022/09/01 02:00:37;;;;;;;1.88;1.15;;;16.80;63.60;;;;;;6241507;23;20059;-68
2022/09/01 02:03:04;;;;;;;1.83;1.20;;;16.80;63.70;;;;;;6241734;23;20004;-69
2022/09/01 02:05:34;;;;;;;2.45;1.50;;;16.70;63.60;;;;;;6239746;23;20441;-68
2022/09/01 02:08:05;;;;;;;1.60;1.30;;;16.70;63.80;;;;;;6241714;23;20019;-68
2022/09/01 02:10:34;;;;;;;1.73;1.10;;;16.70;63.70;;;;;;6241546;23;20011;-68
2022/09/01 02:13:05;;;;;;;1.80;1.10;;;16.70;63.50;;;;;;6241953;23;20443;-69
2022/09/01 02:15:41;;;;;;;1.52;1.15;;;16.70;63.30;;;;;;6240437;23;20710;-68
2022/09/01 02:18:07;;;;;;;1.33;1.02;;;16.70;63.10;;;;;;6240242;23;19996;-68
2022/09/01 02:20:33;;;;;;;2.25;1.23;;;16.70;62.70;;;;;;6240565;23;20000;-68
2022/09/01 02:23:08;;;;;;;2.65;1.10;;;16.70;62.50;;;;;;6240587;23;20007;-68
2022/09/01 02:25:34;;;;;;;1.58;1.10;;;16.70;62.30;;;;;;6241371;23;20000;-68
2022/09/01 02:28:02;;;;;;;2.17;1.25;;;16.80;62.10;;;;;;6241577;23;20022;-68
2022/09/01 02:30:31;;;;;;;1.75;1.10;;;16.70;61.90;;;;;;6241725;23;20004;-67
2022/09/01 02:32:59;;;;;;;1.85;1.30;;;16.80;61.90;;;;;;6243119;23;20011;-66
2022/09/01 02:35:30;;;;;;;1.95;1.20;;;16.70;62.00;;;;;;6243809;23;20008;-67
2022/09/01 02:37:59;;;;;;;1.65;0.90;;;16.70;62.00;;;;;;6244620;22;20020;-66
2022/09/01 02:40:29;;;;;;;2.30;1.23;;;16.70;62.00;;;;;;6242526;23;20425;-66
2022/09/01 02:42:55;;;;;;;1.58;1.25;;;16.70;62.20;;;;;;6244242;23;20057;-67
2022/09/01 02:45:23;;;;;;;4.07;1.30;;;16.70;62.20;;;;;;6243889;23;20456;-67
2022/09/01 02:47:50;;;;;;;1.73;1.40;;;16.60;62.40;;;;;;6243451;23;20004;-68
2022/09/01 02:50:17;;;;;;;2.08;1.13;;;16.60;62.50;;;;;;6243265;23;20696;-67
2022/09/01 02:52:47;;;;;;;2.30;1.10;;;16.60;62.60;;;;;;6243889;23;20055;-67
2022/09/01 02:55:13;;;;;;;2.05;1.17;;;16.60;62.70;;;;;;6243497;23;20007;-67
2022/09/01 02:57:39;;;;;;;3.05;1.33;;;16.50;62.90;;;;;;6244541;23;20046;-66
2022/09/01 03:00:19;;;;;;;1.88;1.00;;;16.40;63.40;;;;;;6244224;23;20357;-67
2022/09/01 03:02:47;;;;;;;2.00;1.30;;;16.40;63.20;;;;;;6244821;23;20012;-67
2022/09/01 03:05:15;;;;;;;1.40;1.10;;;16.40;63.50;;;;;;6242955;23;20338;-67
2022/09/01 03:07:41;;;;;;;2.28;1.45;;;16.40;63.40;;;;;;6244020;23;20000;-67
2022/09/01 03:10:08;;;;;;;2.25;1.30;;;16.40;63.40;;;;;;6244259;23;20436;-67
2022/09/01 03:12:34;;;;;;;1.30;1.20;;;16.40;63.20;;;;;;6243987;23;20496;-67
2022/09/01 03:14:59;;;;;;;1.83;1.20;;;16.40;63.00;;;;;;6244014;23;20028;-67
2022/09/01 03:17:25;;;;;;;1.42;1.10;;;16.40;62.90;;;;;;6243832;23;20007;-67
2022/09/01 03:19:51;;;;;;;1.50;1.30;;;16.40;62.80;;;;;;6244928;23;20306;-67
2022/09/01 03:22:17;;;;;;;1.75;1.33;;;16.40;62.70;;;;;;6244912;23;20015;-67
2022/09/01 03:24:42;;;;;;;1.50;1.17;;;16.40;62.80;;;;;;6244502;23;20004;-67
2022/09/01 03:27:10;;;;;;;1.92;1.15;;;16.40;62.80;;;;;;6244818;23;20436;-67
2022/09/01 03:29:37;;;;;;;2.05;1.13;;;16.40;62.70;;;;;;6245186;23;20004;-67
2022/09/01 03:32:03;;;;;;;1.77;1.42;;;16.40;62.70;;;;;;6242904;23;20004;-67
2022/09/01 03:34:28;;;;;;;1.80;1.42;;;16.40;62.70;;;;;;6243328;23;20100;-67
2022/09/01 03:36:55;;;;;;;2.55;1.23;;;16.30;63.00;;;;;;6243800;23;20059;-68
2022/09/01 03:39:20;;;;;;;1.33;1.02;;;16.20;63.10;;;;;;6241677;23;20005;-68
2022/09/01 03:41:46;;;;;;;2.13;1.50;;;16.20;63.00;;;;;;6242335;23;20338;-67
2022/09/01 03:44:15;;;;;;;1.67;1.50;;;16.20;63.20;;;;;;6242996;23;20080;-69
2022/09/01 03:46:42;;;;;;;2.10;1.30;;;16.10;63.20;;;;;;6242898;23;20022;-68
2022/09/01 03:49:14;;;;;;;2.72;1.50;;;16.10;63.30;;;;;;6243080;23;20000;-68
2022/09/01 03:51:42;;;;;;;2.67;1.30;;;16.10;63.30;;;;;;6242798;23;20000;-68
2022/09/01 03:54:08;;;;;;;1.60;1.45;;;16.00;63.30;;;;;;6244366;23;19997;-67
2022/09/01 03:56:33;;;;;;;1.30;1.02;;;16.00;63.20;;;;;;6243883;23;20492;-67
2022/09/01 03:59:00;;;;;;;1.80;1.30;;;16.00;63.30;;;;;;6244572;23;20444;-66
2022/09/01 04:01:36;;;;;;;2.80;1.40;;;16.00;63.30;;;;;;6243440;23;20004;-67
2022/09/01 04:04:03;;;;;;;2.75;1.27;;;15.90;63.10;;;;;;6243643;23;20007;-67
2022/09/01 04:06:29;;;;;;;1.83;1.20;;;15.90;62.90;;;;;;6243144;23;20010;-68
2022/09/01 04:09:01;;;;;;;2.67;1.48;;;16.00;62.90;;;;;;6242695;23;20053;-67
2022/09/01 04:11:27;;;;;;;4.47;1.20;;;16.00;62.70;;;;;;6243673;23;20610;-68
2022/09/01 04:13:53;;;;;;;2.30;1.30;;;15.90;62.70;;;;;;6243889;23;20345;-67
2022/09/01 04:19:24;;;;;;;1.00;0.90;;;16.00;62.50;;;;;;6243701;23;20604;-67
2022/09/01 04:21:58;;;;;;;1.38;1.10;;;16.00;62.30;;;;;;6243099;23;19996;-67
2022/09/01 04:24:27;;;;;;;2.10;1.30;;;16.00;62.20;;;;;;6242989;23;20004;-67
2022/09/01 04:26:54;;;;;;;1.27;1.00;;;16.00;62.20;;;;;;6242635;23;20018;-67
2022/09/01 04:29:26;;;;;;;1.50;1.27;;;16.00;62.10;;;;;;6242843;23;20027;-67
2022/09/01 04:31:52;;;;;;;1.77;1.40;;;16.00;62.10;;;;;;6242691;23;20024;-67
2022/09/01 04:34:21;;;;;;;1.35;1.10;;;15.90;62.20;;;;;;6241393;23;20007;-66
2022/09/01 04:36:47;;;;;;;0.88;0.80;;;16.00;62.10;;;;;;6242686;23;20341;-68
2022/09/01 04:39:13;;;;;;;1.60;1.20;;;16.00;61.90;;;;;;6242409;23;20001;-68
2022/09/01 04:41:48;;;;;;;1.98;1.30;;;16.00;61.80;;;;;;6242408;23;20443;-69
2022/09/01 04:44:17;;;;;;;2.22;1.30;;;16.00;61.80;;;;;;6241139;23;20027;-68
2022/09/01 04:46:46;;;;;;;1.83;1.10;;;15.90;61.80;;;;;;6242073;23;20028;-67
2022/09/01 04:49:18;;;;;;;1.67;1.20;;;15.90;61.90;;;;;;6242465;22;20075;-67
2022/09/01 04:51:46;;;;;;;4.10;1.60;;;15.80;61.90;;;;;;6242311;23;20003;-68
2022/09/01 04:54:13;;;;;;;1.92;1.17;;;15.70;62.10;;;;;;6242175;23;20559;-68
2022/09/01 04:56:44;;;;;;;2.80;1.30;;;15.70;62.10;;;;;;6240807;23;20004;-68
2022/09/01 04:59:12;;;;;;;2.65;1.38;;;15.70;62.00;;;;;;6242689;23;20444;-66
2022/09/01 05:01:42;;;;;;;2.10;1.50;;;15.70;62.00;;;;;;6244459;22;20515;-67
2022/09/01 05:04:26;;;;;;;4.43;1.63;;;15.60;62.00;;;;;;6242463;23;20000;-68
2022/09/01 05:06:58;;;;;;;2.05;1.48;;;15.60;62.10;;;;;;6242219;23;20320;-67
2022/09/01 05:09:24;;;;;;;2.00;1.38;;;15.60;62.10;;;;;;6242882;23;20375;-67
2022/09/01 05:11:51;;;;;;;4.65;1.30;;;15.60;62.10;;;;;;6241437;23;20000;-68
2022/09/01 05:14:18;;;;;;;2.45;1.30;;;15.60;62.10;;;;;;6243069;23;20079;-68
2022/09/01 05:16:44;;;;;;;2.17;1.27;;;15.50;62.20;;;;;;6242614;23;20011;-67
2022/09/01 05:19:13;;;;;;;1.48;1.27;;;15.60;62.20;;;;;;6243613;23;20000;-67
2022/09/01 05:21:44;;;;;;;1.10;1.00;;;15.50;62.10;;;;;;6243483;23;20329;-68
2022/09/01 05:24:11;;;;;;;2.72;1.08;;;15.60;61.90;;;;;;6242748;23;20330;-68
2022/09/01 05:26:39;;;;;;;1.45;1.25;;;15.60;61.70;;;;;;6242753;23;20311;-68
2022/09/01 05:29:12;;;;;;;3.25;1.17;;;15.60;61.70;;;;;;6242356;23;20441;-70
2022/09/01 05:31:39;;;;;;;2.20;1.15;;;15.70;61.70;;;;;;6243449;23;20066;-68
2022/09/01 05:34:06;;;;;;;1.10;1.00;;;16.00;61.00;;;;;;6243994;23;20031;-66
2022/09/01 05:36:32;;;;;;;2.45;0.90;;;16.30;60.50;;;;;;6242665;23;20008;-67
2022/09/01 05:38:59;;;;;;;1.10;1.00;;;16.40;60.00;;;;;;6244109;23;20413;-67
2022/09/01 05:41:25;;;;;;;1.10;1.00;;;16.40;59.70;;;;;;6245487;23;20345;-67
2022/09/01 05:43:51;;;;;;;0.98;0.90;;;16.30;59.60;;;;;;6243121;23;20000;-67
2022/09/01 05:46:19;;;;;;;2.72;1.15;;;16.30;59.80;;;;;;6243105;23;20011;-67
2022/09/01 05:48:48;;;;;;;2.53;1.20;;;16.20;59.80;;;;;;6242446;23;20007;-68
2022/09/01 05:51:18;;;;;;;1.88;1.08;;;16.10;59.90;;;;;;6241934;23;20030;-66
2022/09/01 05:53:46;;;;;;;1.55;1.20;;;16.00;59.80;;;;;;6244598;23;20004;-66
2022/09/01 05:56:12;;;;;;;1.55;0.95;;;16.10;59.90;;;;;;6244324;22;20000;-66
2022/09/01 05:58:39;;;;;;;2.85;1.15;;;16.10;59.90;;;;;;6244525;23;20000;-67
2022/09/01 06:01:05;;;;;;;2.20;1.25;;;16.10;59.90;;;;;;6242331;23;20375;-68
2022/09/01 06:03:32;;;;;;;1.55;1.23;;;16.10;59.70;;;;;;6244221;22;20055;-68
2022/09/01 06:06:11;;;;;;;1.95;1.05;;;16.10;59.60;;;;;;6244445;23;20062;-67
2022/09/01 06:08:37;;;;;;;1.10;1.00;;;16.10;59.10;;;;;;6242311;23;20004;-67
2022/09/01 06:11:11;;;;;;;1.85;1.15;;;16.20;59.20;;;;;;6243737;23;20001;-67
2022/09/01 06:13:38;;;;;;;1.20;1.10;;;16.50;58.60;;;;;;6244477;23;20004;-67
2022/09/01 06:16:04;;;;;;;1.85;1.00;;;16.80;57.90;;;;;;6246053;23;20654;-67
2022/09/01 06:18:33;;;;;;;1.15;1.05;;;17.30;57.10;;;;;;6245190;23;20028;-67
2022/09/01 06:20:59;;;;;;;1.08;0.93;;;18.10;55.50;;;;;;6246005;23;20000;-67
2022/09/01 06:23:24;;;;;;;1.70;1.02;;;19.00;53.50;;;;;;6245609;23;20008;-66
2022/09/01 06:25:50;;;;;;;1.67;0.80;;;18.90;52.20;;;;;;6243494;23;20004;-67
2022/09/01 06:28:20;;;;;;;1.42;1.00;;;18.80;52.50;;;;;;6245164;23;20044;-67
2022/09/01 06:30:46;;;;;;;5.70;0.98;;;19.90;51.60;;;;;;6244193;23;20481;-67
2022/09/01 06:33:12;;;;;;;1.33;0.80;;;21.30;48.60;;;;;;6245316;23;20004;-66
2022/09/01 06:35:40;;;;;;;1.02;0.93;;;21.70;47.10;;;;;;6245558;23;20003;-67
2022/09/01 06:38:07;;;;;;;2.50;1.05;;;22.30;45.50;;;;;;6245485;23;20035;-67
2022/09/01 06:40:34;;;;;;;2.05;0.90;;;23.10;43.80;;;;;;6245895;23;19996;-68
2022/09/01 06:43:06;;;;;;;2.00;1.10;;;23.60;42.40;;;;;;6245950;23;20005;-68
2022/09/01 06:45:33;;;;;;;;;;;23.80;41.80;;;;;;6245838;23;20098;-68
2022/09/01 06:48:00;;;;;;;0.90;0.63;;;24.60;41.50;;;;;;6247841;22;20012;-68
2022/09/01 06:50:26;;;;;;;1.20;0.90;;;25.20;41.20;;;;;;6247046;23;20000;-68
2022/09/01 06:53:00;;;;;;;1.73;1.00;;;25.50;39.60;;;;;;6247469;23;20008;-68
2022/09/01 06:55:32;;;;;;;3.67;0.90;;;25.20;38.70;;;;;;6245213;23;20005;-67
2022/09/01 06:57:58;;;;;;;1.20;0.90;;;25.80;38.00;;;;;;6245073;23;20000;-68
2022/09/01 07:00:25;;;;;;;1.77;1.00;;;25.90;37.70;;;;;;6244379;23;20621;-67
2022/09/01 07:02:56;;;;;;;1.73;0.90;;;25.70;37.90;;;;;;6244251;23;20004;-68
2022/09/01 07:05:23;;;;;;;2.67;0.70;;;24.50;39.30;;;;;;6245438;23;20516;-68
2022/09/01 07:07:51;;;;;;;1.05;0.93;;;23.40;41.50;;;;;;6244905;23;20139;-68
2022/09/01 07:10:21;;;;;;;1.15;0.70;;;22.60;42.90;;;;;;6244745;23;20592;-68
2022/09/01 07:12:58;;;;;;;1.27;0.77;;;23.00;43.20;;;;;;6243531;23;20243;-68
2022/09/01 07:15:23;;;;;;;2.78;0.93;;;24.60;41.70;;;;;;6244977;23;20422;-68
2022/09/01 07:17:52;;;;;;;1.20;0.75;;;25.70;39.60;;;;;;6243038;23;20000;-68
2022/09/01 07:20:20;;;;;;;2.47;0.80;;;26.90;38.30;;;;;;6245700;23;20058;-68
2022/09/01 07:22:46;;;;;;;1.70;0.70;;;27.90;37.20;;;;;;6245030;23;20011;-68
2022/09/01 07:25:13;;;;;;;2.75;1.00;;;28.10;35.80;;;;;;6244934;23;20430;-69
2022/09/01 07:27:41;;;;;;;3.72;0.80;;;28.10;35.50;;;;;;6243358;23;20490;-68
2022/09/01 07:30:08;;;;;;;1.15;1.05;;;28.00;35.40;;;;;;6242033;23;20310;-68
2022/09/01 07:32:39;;;;;;;1.52;0.98;;;27.90;35.40;;;;;;6244981;23;20062;-68
2022/09/01 07:35:07;;;;;;;3.28;1.05;;;28.00;35.40;;;;;;6244633;23;20050;-68
2022/09/01 07:37:36;;;;;;;1.45;0.80;;;28.00;35.30;;;;;;6244900;23;19996;-66
2022/09/01 07:40:08;;;;;;;1.70;1.00;;;28.30;35.20;;;;;;6244769;23;20024;-68
2022/09/01 07:42:34;;;;;;;2.78;1.00;;;28.10;34.30;;;;;;6245005;23;20015;-69
2022/09/01 07:45:05;;;;;;;1.55;1.00;;;27.70;35.10;;;;;;6244886;23;20028;-68
2022/09/01 07:47:35;;;;;;;2.55;0.90;;;27.70;34.70;;;;;;6242047;23;20338;-68
2022/09/01 07:50:07;;;;;;;1.85;0.90;;;27.80;35.30;;;;;;6242295;23;20437;-68
2022/09/01 07:52:34;;;;;;;4.05;0.98;;;28.00;35.10;;;;;;6243798;23;20062;-68
2022/09/01 07:55:00;;;;;;;2.55;1.08;;;28.00;34.70;;;;;;6243254;23;20007;-68
2022/09/01 07:57:26;;;;;;;1.77;0.90;;;27.90;35.50;;;;;;6243882;23;20000;-68
2022/09/01 07:59:54;;;;;;;1.27;1.00;;;28.00;35.20;;;;;;6244080;23;20452;-68
2022/09/01 08:02:20;;;;;;;1.48;0.80;;;28.30;34.90;;;;;;6241578;23;20069;-68
2022/09/01 08:04:47;;;;;;;1.58;0.90;;;29.00;34.80;;;;;;6241080;23;20788;-68
2022/09/01 08:07:13;;;;;;;1.48;0.80;;;29.80;33.80;;;;;;6243167;23;20008;-67
2022/09/01 08:09:39;;;;;;;1.98;0.80;;;29.70;33.40;;;;;;6242297;23;20055;-68
2022/09/01 08:12:06;;;;;;;1.27;0.90;;;29.30;33.50;;;;;;6244442;23;20012;-68
2022/09/01 08:14:32;;;;;;;1.77;0.95;;;29.20;33.80;;;;;;6241097;23;20010;-67
2022/09/01 08:16:58;;;;;;;1.25;1.00;;;29.50;33.50;;;;;;6242136;23;20078;-67
2022/09/01 08:19:24;;;;;;;1.58;0.90;;;29.40;33.50;;;;;;6242340;23;20036;-68
2022/09/01 08:21:49;;;;;;;2.05;0.80;;;29.10;33.90;;;;;;6242330;23;20054;-68
2022/09/01 08:24:15;;;;;;;2.40;0.95;;;29.60;33.70;;;;;;6243617;23;19996;-67
2022/09/01 08:26:40;;;;;;;2.35;0.90;;;29.20;33.50;;;;;;6242908;23;20004;-68
2022/09/01 08:29:06;;;;;;;1.08;0.80;;;28.80;33.40;;;;;;6242728;23;19996;-67
2022/09/01 08:31:34;;;;;;;1.33;0.82;;;28.50;34.20;;;;;;6243742;23;20000;-67
2022/09/01 08:34:02;;;;;;;2.40;0.95;;;28.60;34.40;;;;;;6241021;22;20004;-67
2022/09/01 08:36:27;;;;;;;1.77;0.80;;;29.10;33.70;;;;;;6241547;23;20020;-67
2022/09/01 08:38:53;;;;;;;4.82;0.90;;;28.90;33.70;;;;;;6241224;23;20003;-67
2022/09/01 08:41:36;;;;;;;4.00;1.00;;;29.40;33.90;;;;;;6240122;23;20026;-67
2022/09/01 08:44:25;;;;;;;2.58;0.90;;;29.30;33.40;;;;;;6243202;23;20038;-67
2022/09/01 08:47:02;;;;;;;1.52;0.90;;;29.10;33.60;;;;;;6239469;23;20088;-67
2022/09/01 08:49:28;;;;;;;1.80;0.90;;;29.10;33.80;;;;;;6240113;23;20000;-67
2022/09/01 08:52:24;;;;;;;2.22;0.93;;;28.60;33.50;;;;;;6242532;23;20010;-67
2022/09/01 08:54:56;;;;;;;3.63;0.85;;;28.10;34.30;;;;;;6242448;23;20118;-67
2022/09/01 08:57:44;;;;;;;2.67;1.00;;;28.00;34.70;;;;;;6242739;23;20420;-68
2022/09/01 09:00:14;;;;;;;3.95;0.90;;;27.50;35.30;;;;;;6243042;22;20003;-67
2022/09/01 09:02:51;;;;;;;1.77;0.95;;;26.80;36.00;;;;;;6243260;23;20050;-67
2022/09/01 09:05:31;;;;;;;4.22;1.17;;;25.50;37.00;;;;;;6243496;23;20091;-67
2022/09/01 09:08:22;;;;;;;3.80;1.00;;;24.50;38.30;;;;;;6242732;23;20004;-67
2022/09/01 09:11:02;;;;;;;0.85;0.63;;;23.80;39.40;;;;;;6242284;23;20482;-67
2022/09/01 09:13:46;;;;;;;1.27;0.80;;;23.50;40.40;;;;;;6242527;23;20023;-67
2022/09/01 09:16:17;;;;;;;2.85;0.90;;;23.40;40.60;;;;;;6243203;23;19997;-67
2022/09/01 09:19:01;;;;;;;1.40;0.80;;;23.40;40.60;;;;;;6248668;23;20069;-67
2022/09/01 09:21:39;;;;;;;0.98;0.85;;;23.30;40.80;;;;;;6252556;23;20023;-67
2022/09/01 09:24:28;;;;;;;1.30;0.80;;;23.40;40.50;;;;;;6255721;23;20004;-67
2022/09/01 09:27:01;;;;;;;1.63;0.60;;;23.50;40.20;;;;;;6235344;23;20472;-67
2022/09/01 09:29:26;;;;;;;2.88;0.90;;;23.50;40.30;;;;;;6246941;23;20011;-67
2022/09/01 09:32:07;;;;;;;1.23;0.75;;;23.50;39.70;;;;;;6242439;23;20004;-67
2022/09/01 09:34:37;;;;;;;1.05;0.60;;;23.50;38.80;;;;;;6245446;23;20004;-67
2022/09/01 09:37:24;;;;;;;2.22;0.80;;;23.50;39.20;;;;;;6245754;23;19996;-67
2022/09/01 09:40:11;;;;;;;1.70;0.90;;;23.40;38.80;;;;;;6244217;23;20023;-67
2022/09/01 09:42:38;;;;;;;1.80;0.95;;;23.40;39.10;;;;;;6245624;23;20004;-67
2022/09/01 09:45:20;;;;;;;1.23;0.90;;;23.60;38.70;;;;;;6246123;23;20008;-67
2022/09/01 09:47:46;;;;;;;0.70;0.70;;;23.60;38.40;;;;;;6246708;23;20031;-67
2022/09/01 09:50:28;;;;;;;2.08;1.05;;;23.70;38.60;;;;;;6248431;23;20341;-67
2022/09/01 09:53:11;;;;;;;;;;;23.70;37.50;;;;;;6248625;23;20072;-67
2022/09/01 09:55:52;;;;;;;3.45;1.42;;;23.60;37.50;;;;;;6247558;22;19931;-67
2022/09/01 09:58:25;;;;;;;1.55;0.55;;;23.60;37.40;;;;;;6244808;23;20011;-67
2022/09/01 10:01:06;;;;;;;0.63;0.60;;;23.60;37.50;;;;;;6247440;23;20473;-68
2022/09/01 10:03:53;;;;;;;0.95;0.70;;;23.70;36.90;;;;;;6247799;22;20012;-67
2022/09/01 10:06:36;;;;;;;0.75;0.70;;;23.60;36.80;;;;;;6246431;23;20012;-67
2022/09/01 10:09:05;;;;;;;0.80;0.60;;;23.70;37.30;;;;;;6248193;23;20000;-67
2022/09/01 10:11:38;;;;;;;0.80;0.70;;;23.70;37.00;;;;;;6246891;23;20007;-67
2022/09/01 10:14:20;;;;;;;1.40;0.90;;;23.80;37.10;;;;;;6247257;23;20135;-67
2022/09/01 10:16:53;;;;;;;0.80;0.60;;;24.00;36.50;;;;;;6247012;23;20001;-67
2022/09/01 10:19:20;;;;;;;1.98;0.75;;;24.10;36.00;;;;;;6248037;23;20000;-67
2022/09/01 10:21:46;;;;;;;1.27;0.63;;;24.10;35.40;;;;;;6247933;23;20081;-67
2022/09/01 10:24:28;;;;;;;1.58;0.73;;;24.10;35.30;;;;;;6246606;23;19996;-67
2022/09/01 10:26:57;;;;;;;0.88;0.60;;;24.10;35.30;;;;;;6242573;23;20445;-67
2022/09/01 10:29:31;;;;;;;1.10;0.63;;;24.10;35.40;;;;;;6241568;23;20008;-67
2022/09/01 10:31:59;;;;;;;1.73;0.70;;;24.20;35.50;;;;;;6241699;23;20031;-67
2022/09/01 10:34:31;;;;;;;0.50;0.50;;;24.30;34.90;;;;;;6243840;23;20012;-67
2022/09/01 10:36:58;;;;;;;1.00;0.60;;;24.30;34.60;;;;;;6243642;23;19997;-67
2022/09/01 10:39:23;;;;;;;1.00;0.63;;;24.30;34.80;;;;;;6242196;23;20075;-67
2022/09/01 10:41:55;;;;;;;1.17;0.77;;;24.20;35.20;;;;;;6243700;23;20035;-67
2022/09/01 10:44:30;;;;;;;0.73;0.60;;;24.30;36.00;;;;;;6244072;22;20614;-67
2022/09/01 10:46:58;;;;;;;1.92;0.80;;;24.30;35.20;;;;;;6243962;23;20599;-67
2022/09/01 10:49:43;;;;;;;1.08;0.70;;;24.40;35.30;;;;;;6244164;22;20329;-67
2022/09/01 10:52:09;;;;;;;1.95;0.73;;;24.50;34.90;;;;;;6195994;22;20396;-67
2022/09/01 10:54:40;;;;;;;1.85;0.60;;;24.40;35.30;;;;;;6244025;23;20004;-67
2022/09/01 10:57:31;;;;;;;1.80;0.60;;;24.40;35.40;;;;;;6242859;23;20050;-68
2022/09/01 11:00:17;;;;;;;0.82;0.60;;;24.50;35.50;;;;;;6227551;23;20004;-67
2022/09/01 11:03:11;;;;;;;0.65;0.52;;;24.50;35.50;;;;;;6244877;22;20069;-67
2022/09/01 11:05:59;;;;;;;0.77;0.70;;;24.60;35.50;;;;;;6243602;22;20083;-67
2022/09/01 11:08:27;;;;;;;1.88;0.80;;;24.60;35.40;;;;;;6242890;23;20015;-68
2022/09/01 11:11:23;;;;;;;1.75;0.60;;;24.60;35.50;;;;;;6242107;23;20008;-69
2022/09/01 11:13:54;;;;;;;0.50;0.50;;;24.70;35.80;;;;;;6239558;23;20093;-68
2022/09/01 11:16:23;;;;;;;;;;;25.00;35.60;;;;;;6241709;23;20130;-70
2022/09/01 11:18:50;;;;;;;1.45;0.60;;;25.00;35.00;;;;;;6239731;22;19900;-68
2022/09/01 11:21:28;;;;;;;0.88;0.70;;;25.00;35.10;;;;;;6238960;23;20488;-68
2022/09/01 11:24:33;;;;;;;2.25;0.80;;;25.00;34.80;;;;;;6240561;23;20056;-68
2022/09/01 11:26:59;;;;;;;0.98;0.77;;;25.00;34.20;;;;;;6225934;23;20027;-68
2022/09/01 11:29:50;;;;;;;1.45;0.70;;;25.00;34.50;;;;;;6241949;23;20341;-68
2022/09/01 11:32:17;;;;;;;1.90;0.60;;;25.10;34.80;;;;;;6240948;23;20071;-68
2022/09/01 11:34:47;;;;;;;1.52;0.65;;;25.30;34.80;;;;;;6242745;23;20000;-69
2022/09/01 11:37:16;;;;;;;0.60;0.60;;;25.40;34.70;;;;;;6242553;23;20008;-68
2022/09/01 11:39:48;;;;;;;1.48;0.70;;;25.30;34.30;;;;;;6241382;23;20054;-68
2022/09/01 11:42:42;;;;;;;1.00;0.77;;;25.30;34.30;;;;;;6241149;23;20026;-69
2022/09/01 11:45:18;;;;;;;2.03;0.70;;;25.30;34.30;;;;;;6242400;23;20051;-68
2022/09/01 11:47:51;;;;;;;1.65;0.63;;;25.40;34.30;;;;;;6242592;23;20018;-68
2022/09/01 11:50:27;;;;;;;1.30;0.60;;;25.60;34.40;;;;;;6243057;23;20000;-69
2022/09/01 11:52:55;;;;;;;1.90;0.65;;;25.40;33.80;;;;;;6241515;23;20004;-68
2022/09/01 11:55:41;;;;;;;6.53;4.70;;;25.50;34.40;;;;;;6242406;23;20488;-68
2022/09/01 11:58:12;;;;;;;2.10;0.90;;;25.50;33.80;;;;;;6242403;23;20031;-68
2022/09/01 12:00:41;;;;;;;1.55;0.80;;;25.40;33.60;;;;;;6240746;23;20070;-68
2022/09/01 12:03:28;;;;;;;1.90;0.75;;;25.30;33.50;;;;;;6238643;23;20000;-68
2022/09/01 12:06:06;;;;;;;1.20;0.77;;;25.40;33.70;;;;;;6242041;23;20052;-68
2022/09/01 12:08:39;;;;;;;1.48;0.60;;;25.50;33.70;;;;;;6240489;23;20059;-67
2022/09/01 12:11:09;;;;;;;1.50;0.80;;;25.50;33.40;;;;;;6241030;23;20508;-68
2022/09/01 12:13:36;;;;;;;2.05;0.80;;;25.60;33.40;;;;;;6239903;23;20016;-68
2022/09/01 12:16:06;;;;;;;1.48;0.80;;;25.80;33.40;;;;;;6242269;23;20011;-68
2022/09/01 12:18:38;;;;;;;2.20;0.77;;;25.90;33.50;;;;;;6241832;23;20011;-68
2022/09/01 12:21:06;;;;;;;1.08;0.80;;;25.70;33.50;;;;;;6242216;22;20007;-67
2022/09/01 12:23:45;;;;;;;1.50;0.70;;;25.70;33.60;;;;;;6242895;23;20000;-68
2022/09/01 12:26:13;;;;;;;2.08;0.88;;;25.70;34.00;;;;;;6243382;23;20079;-68
2022/09/01 12:28:40;;;;;;;4.20;0.93;;;25.80;33.80;;;;;;6242589;23;20377;-68
2022/09/01 12:31:12;;;;;;;2.85;0.88;;;25.70;33.70;;;;;;6240151;23;20333;-68
2022/09/01 12:33:37;;;;;;;;;;;25.70;34.00;;;;;;6241951;23;20031;-67
2022/09/01 12:36:28;;;;;;;2.35;0.70;;;25.80;33.90;;;;;;6243550;22;20320;-67
2022/09/01 12:38:57;;;;;;;3.33;0.70;;;26.00;34.10;;;;;;6242965;22;19996;-67
2022/09/01 12:41:24;;;;;;;2.17;0.80;;;26.10;33.60;;;;;;6241236;23;20187;-67
2022/09/01 12:43:50;;;;;;;2.00;1.02;;;26.20;33.70;;;;;;6240779;23;20506;-67
2022/09/01 12:46:41;;;;;;;1.33;0.77;;;26.20;33.20;;;;;;6242430;23;20000;-68
2022/09/01 12:49:18;;;;;;;1.07;0.80;;;26.00;33.70;;;;;;6240978;22;20056;-68
2022/09/01 12:51:47;;;;;;;1.10;0.80;;;26.30;33.80;;;;;;6237490;23;20014;-68
2022/09/01 12:54:13;;;;;;;0.82;0.70;;;26.50;33.20;;;;;;6239077;23;20350;-69
2022/09/01 12:56:39;;;;;;;1.63;0.85;;;26.50;33.10;;;;;;6240929;23;20056;-68
2022/09/01 12:59:09;;;;;;;1.08;0.60;;;26.70;32.90;;;;;;6240507;23;20062;-67
2022/09/01 13:01:36;;;;;;;0.83;0.67;;;26.90;32.50;;;;;;6239595;23;20007;-70
2022/09/01 13:04:31;;;;;;;1.42;0.90;;;26.70;32.00;;;;;;6240849;23;20337;-67
2022/09/01 13:07:06;;;;;;;4.35;0.70;;;26.70;31.90;;;;;;6229489;23;20456;-67
2022/09/01 13:09:32;;;;;;;2.00;0.90;;;26.80;32.00;;;;;;6238541;23;20083;-69
2022/09/01 13:12:19;;;;;;;3.30;0.90;;;26.80;31.60;;;;;;6239093;23;20429;-68